createdAt,value
2017-11-15T00:02:18.592Z,102103.42
2017-11-15T00:04:46.285Z,102103.27
2017-11-15T00:07:13.953Z,102110.08
2017-11-15T00:09:41.638Z,102113.69
2017-11-15T00:12:09.244Z,102108.71
2017-11-15T00:14:36.935Z,102106.22
2017-11-15T00:17:04.543Z,102104.13
2017-11-15T00:19:32.268Z,102092.92
2017-11-15T00:21:59.934Z,102099.85
2017-11-15T00:24:27.584Z,102101.23
2017-11-15T00:26:55.231Z,102097.64
2017-11-15T00:29:22.865Z,102104.70
2017-11-15T00:31:50.519Z,102101.37
2017-11-15T00:34:18.196Z,102106.92
2017-11-15T00:36:45.919Z,102110.66
2017-11-15T00:39:13.626Z,102110.81
2017-11-15T00:41:41.258Z,102117.17
2017-11-15T00:44:08.919Z,102114.40
2017-11-15T00:46:36.608Z,102128.67
2017-11-15T00:49:04.322Z,102126.45
2017-11-15T00:51:32.012Z,102128.84
2017-11-15T00:53:59.679Z,102134.77
2017-11-15T00:56:27.372Z,102135.19
2017-11-15T00:58:55.051Z,102132.41
2017-11-15T01:01:22.686Z,102140.75
2017-11-15T01:03:50.341Z,102137.02
2017-11-15T01:06:18.034Z,102139.24
2017-11-15T01:08:45.641Z,102139.52
2017-11-15T01:11:13.328Z,102138.28
2017-11-15T01:13:40.994Z,102144.49
2017-11-15T01:16:08.689Z,102140.48
2017-11-15T01:18:36.355Z,102141.03
2017-11-15T01:21:04.071Z,102136.75
2017-11-15T01:23:31.711Z,102131.63
2017-11-15T01:25:59.383Z,102130.78
2017-11-15T01:28:27.071Z,102131.20
2017-11-15T01:30:54.748Z,102117.61
2017-11-15T01:33:22.396Z,102113.88
2017-11-15T01:35:50.071Z,102112.37
2017-11-15T01:38:17.764Z,102121.95
2017-11-15T01:40:45.420Z,102126.11
2017-11-15T01:43:13.135Z,102131.37
2017-11-15T01:45:40.734Z,102127.22
2017-11-15T01:48:08.383Z,102130.41
2017-11-15T01:50:35.989Z,102132.76
2017-11-15T01:53:03.688Z,102136.80
2017-11-15T01:55:31.350Z,102137.06
2017-11-15T01:57:59.000Z,102133.87
2017-11-15T02:00:38.519Z,102131.09
2017-11-15T02:03:06.151Z,102133.17
2017-11-15T02:05:33.818Z,102127.36
2017-11-15T02:08:01.444Z,102132.06
2017-11-15T02:10:29.079Z,102132.91
2017-11-15T02:12:56.780Z,102135.25
2017-11-15T02:15:24.443Z,102132.06
2017-11-15T02:17:52.072Z,102125.70
2017-11-15T02:20:19.756Z,102134.58
2017-11-15T02:22:47.480Z,102121.95
2017-11-15T02:25:15.102Z,102129.73
2017-11-15T02:27:42.795Z,102129.19
2017-11-15T02:30:10.528Z,102130.02
2017-11-15T02:32:38.229Z,102121.16
2017-11-15T02:35:05.862Z,102127.67
2017-11-15T02:37:33.557Z,102126.83
2017-11-15T02:40:01.262Z,102121.16
2017-11-15T02:42:28.914Z,102121.16
2017-11-15T02:44:56.612Z,102117.13
2017-11-15T02:47:24.327Z,102112.55
2017-11-15T02:49:52.018Z,102107.70
2017-11-15T02:52:19.681Z,102101.31
2017-11-15T02:54:47.375Z,102104.94
2017-11-15T02:57:15.032Z,102106.70
2017-11-15T02:59:42.728Z,102109.78
2017-11-15T03:02:10.393Z,102103.55
2017-11-15T03:04:38.073Z,102103.55
2017-11-15T03:07:05.714Z,102114.76
2017-11-15T03:09:33.411Z,102114.76
2017-11-15T03:12:01.061Z,102106.02
2017-11-15T03:14:28.752Z,102107.11
2017-11-15T03:16:56.420Z,102104.63
2017-11-15T03:19:24.108Z,102103.37
2017-11-15T03:21:51.784Z,102107.28
2017-11-15T03:24:19.477Z,102112.53
2017-11-15T03:26:47.144Z,102117.95
2017-11-15T03:29:14.813Z,102116.70
2017-11-15T03:31:42.514Z,102102.55
2017-11-15T03:34:10.187Z,102097.70
2017-11-15T03:36:37.885Z,102096.02
2017-11-15T03:39:05.546Z,102086.19
2017-11-15T03:41:33.248Z,102083.72
2017-11-15T03:44:00.850Z,102084.95
2017-11-15T03:46:28.493Z,102081.21
2017-11-15T03:48:56.191Z,102075.82
2017-11-15T03:51:23.871Z,102072.05
2017-11-15T03:53:51.526Z,102083.02
2017-11-15T03:56:19.229Z,102091.20
2017-11-15T03:58:46.898Z,102099.23
2017-11-15T04:01:14.609Z,102096.73
2017-11-15T04:03:42.274Z,102112.53
2017-11-15T04:06:09.931Z,102115.30
2017-11-15T04:08:37.535Z,102120.58
2017-11-15T04:11:05.233Z,102122.23
2017-11-15T04:13:32.829Z,102130.42
2017-11-15T04:16:00.553Z,102117.41
2017-11-15T04:18:28.200Z,102125.98
2017-11-15T04:20:55.901Z,102129.75
2017-11-15T04:23:23.520Z,102123.36
2017-11-15T04:25:51.233Z,102115.77
2017-11-15T04:28:18.840Z,102113.41
2017-11-15T04:30:46.483Z,102106.90
2017-11-15T04:33:14.131Z,102105.52
2017-11-15T04:35:41.774Z,102109.39
2017-11-15T04:38:09.472Z,102107.19
2017-11-15T04:40:37.127Z,102102.76
2017-11-15T04:43:04.861Z,102107.19
2017-11-15T04:45:32.551Z,102104.41
2017-11-15T04:48:00.332Z,102107.61
2017-11-15T04:50:27.937Z,102094.72
2017-11-15T04:52:55.628Z,102108.17
2017-11-15T04:55:23.289Z,102105.70
2017-11-15T04:57:50.981Z,102100.02
2017-11-15T05:00:18.634Z,102100.83
2017-11-15T05:02:46.325Z,102106.55
2017-11-15T05:05:13.993Z,102105.01
2017-11-15T05:07:41.703Z,102100.30
2017-11-15T05:10:09.364Z,102099.76
2017-11-15T05:12:37.075Z,102095.05
2017-11-15T05:15:04.681Z,102086.73
2017-11-15T05:17:32.312Z,102096.44
2017-11-15T05:19:59.973Z,102095.18
2017-11-15T05:22:27.712Z,102095.72
2017-11-15T05:24:55.372Z,102093.67
2017-11-15T05:27:22.963Z,102093.25
2017-11-15T05:29:50.668Z,102094.22
2017-11-15T05:32:18.324Z,102093.53
2017-11-15T05:34:46.031Z,102091.72
2017-11-15T05:37:13.696Z,102095.04
2017-11-15T05:39:41.331Z,102102.52
2017-11-15T05:42:08.943Z,102096.30
2017-11-15T05:44:36.581Z,102098.92
2017-11-15T05:47:04.200Z,102107.53
2017-11-15T05:49:31.885Z,102103.50
2017-11-15T05:51:59.508Z,102096.98
2017-11-15T05:54:27.142Z,102097.41
2017-11-15T05:56:54.756Z,102098.80
2017-11-15T05:59:22.400Z,102092.83
2017-11-15T06:01:50.007Z,102096.86
2017-11-15T06:04:17.643Z,102094.09
2017-11-15T06:06:45.246Z,102101.71
2017-11-15T06:09:12.888Z,102104.36
2017-11-15T06:11:40.555Z,102103.81
2017-11-15T06:14:08.155Z,102107.82
2017-11-15T06:16:35.909Z,102116.44
2017-11-15T06:19:03.487Z,102113.37
2017-11-15T06:21:31.154Z,102112.82
2017-11-15T06:23:58.826Z,102116.14
2017-11-15T06:26:26.446Z,102117.95
2017-11-15T06:28:54.182Z,102109.62
2017-11-15T06:31:21.864Z,102096.72
2017-11-15T06:33:49.527Z,102087.02
2017-11-15T06:36:17.307Z,102095.91
2017-11-15T06:38:44.894Z,102099.50
2017-11-15T06:41:12.613Z,102102.14
2017-11-15T06:43:40.264Z,102106.45
2017-11-15T06:46:07.994Z,102107.29
2017-11-15T06:48:35.688Z,102111.59
2017-11-15T06:51:03.414Z,102114.24
2017-11-15T06:53:31.023Z,102118.13
2017-11-15T06:55:58.724Z,102125.48
2017-11-15T06:58:26.391Z,102127.16
2017-11-15T07:00:54.119Z,102130.78
2017-11-15T07:03:21.777Z,102134.95
2017-11-15T07:05:49.478Z,102136.78
2017-11-15T07:08:17.156Z,102138.85
2017-11-15T07:10:44.863Z,102134.56
2017-11-15T07:13:12.536Z,102144.97
2017-11-15T07:15:40.194Z,102148.03
2017-11-15T07:18:07.896Z,102148.30
2017-11-15T07:20:35.615Z,102147.34
2017-11-15T07:23:03.287Z,102153.05
2017-11-15T07:25:31.003Z,102160.98
2017-11-15T07:27:58.675Z,102161.80
2017-11-15T07:30:26.385Z,102165.44
2017-11-15T07:32:54.065Z,102161.71
2017-11-15T07:35:21.704Z,102156.90
2017-11-15T07:37:49.382Z,102163.01
2017-11-15T07:40:17.084Z,102158.69
2017-11-15T07:42:44.804Z,102153.02
2017-11-15T07:45:12.433Z,102151.22
2017-11-15T07:47:40.066Z,102156.24
2017-11-15T07:50:07.755Z,102143.75
2017-11-15T07:52:35.419Z,102153.90
2017-11-15T07:55:03.012Z,102159.05
2017-11-15T07:57:30.639Z,102153.92
2017-11-15T07:59:58.277Z,102152.26
2017-11-15T08:02:25.900Z,102165.72
2017-11-15T08:04:53.504Z,102166.97
2017-11-15T08:07:24.401Z,102171.97
2017-11-15T08:09:52.051Z,102174.59
2017-11-15T08:12:19.756Z,102169.34
2017-11-15T08:14:47.432Z,102171.31
2017-11-15T08:17:15.130Z,102171.19
2017-11-15T08:19:42.792Z,102176.20
2017-11-15T08:22:10.499Z,102175.48
2017-11-15T08:24:38.174Z,102176.74
2017-11-15T08:27:05.896Z,102172.59
2017-11-15T08:29:33.584Z,102181.36
2017-11-15T08:32:01.228Z,102176.63
2017-11-15T08:34:28.819Z,102177.08
2017-11-15T08:36:56.506Z,102182.22
2017-11-15T08:39:24.104Z,102180.84
2017-11-15T08:41:51.800Z,102180.03
2017-11-15T08:44:19.388Z,102184.05
2017-11-15T08:46:47.134Z,102189.63
2017-11-15T08:49:14.742Z,102185.77
2017-11-15T08:51:42.416Z,102186.89
2017-11-15T08:54:10.129Z,102182.59
2017-11-15T08:56:37.795Z,102182.19
2017-11-15T08:59:05.480Z,102186.50
2017-11-15T09:01:33.158Z,102182.91
2017-11-15T09:04:00.909Z,102187.38
2017-11-15T09:06:28.627Z,102178.24
2017-11-15T09:08:56.351Z,102181.47
2017-11-15T09:11:24.021Z,102183.27
2017-11-15T09:13:51.712Z,102191.20
2017-11-15T09:16:19.378Z,102189.72
2017-11-15T09:18:47.076Z,102185.57
2017-11-15T09:21:14.729Z,102190.84
2017-11-15T09:23:43.265Z,102196.00
2017-11-15T09:26:10.927Z,102187.36
2017-11-15T09:28:38.629Z,102185.55
2017-11-15T09:31:06.309Z,102198.23
2017-11-15T09:33:34.010Z,102196.97
2017-11-15T09:36:01.674Z,102196.55
2017-11-15T09:38:29.384Z,102202.95
2017-11-15T09:40:57.067Z,102202.27
2017-11-15T09:43:24.779Z,102195.44
2017-11-15T09:45:52.481Z,102197.09
2017-11-15T09:48:20.179Z,102198.66
2017-11-15T09:50:47.926Z,102194.61
2017-11-15T09:53:15.585Z,102200.44
2017-11-15T09:55:43.300Z,102192.50
2017-11-15T09:58:10.952Z,102193.48
2017-11-15T10:00:38.654Z,102193.89
2017-11-15T10:03:06.284Z,102186.81
2017-11-15T10:05:34.004Z,102197.39
2017-11-15T10:08:01.590Z,102200.43
2017-11-15T10:10:29.274Z,102194.73
2017-11-15T10:12:56.948Z,102197.80
2017-11-15T10:15:24.706Z,102192.63
2017-11-15T10:17:52.413Z,102199.45
2017-11-15T10:20:20.111Z,102194.19
2017-11-15T10:22:47.771Z,102194.45
2017-11-15T10:25:15.471Z,102200.42
2017-11-15T10:27:43.145Z,102197.38
2017-11-15T10:30:11.804Z,102202.53
2017-11-15T10:32:39.464Z,102207.13
2017-11-15T10:35:07.163Z,102209.49
2017-11-15T10:37:34.831Z,102207.26
2017-11-15T10:40:02.490Z,102213.24
2017-11-15T10:42:30.161Z,102209.78
2017-11-15T10:44:57.799Z,102208.80
2017-11-15T10:47:25.500Z,102205.05
2017-11-15T10:49:53.157Z,102207.55
2017-11-15T10:52:20.851Z,102203.08
2017-11-15T10:54:48.460Z,102210.04
2017-11-15T10:57:16.100Z,102205.61
2017-11-15T10:59:43.725Z,102207.81
2017-11-15T11:02:11.410Z,102201.86
2017-11-15T11:04:39.062Z,102204.06
2017-11-15T11:07:06.692Z,102207.81
2017-11-15T11:09:34.294Z,102205.19
2017-11-15T11:12:01.946Z,102204.47
2017-11-15T11:14:29.551Z,102202.53
2017-11-15T11:16:57.187Z,102198.78
2017-11-15T11:19:24.790Z,102203.64
2017-11-15T11:21:52.427Z,102199.05
2017-11-15T11:24:20.031Z,102201.70
2017-11-15T11:26:47.668Z,102205.32
2017-11-15T11:29:15.279Z,102199.75
2017-11-15T11:31:42.907Z,102205.32
2017-11-15T11:34:10.516Z,102196.13
2017-11-15T11:36:38.153Z,102195.87
2017-11-15T11:39:05.758Z,102195.70
2017-11-15T11:41:33.403Z,102201.27
2017-11-15T11:44:01.007Z,102198.23
2017-11-15T11:46:28.662Z,102203.92
2017-11-15T11:48:56.266Z,102200.72
2017-11-15T11:51:23.909Z,102197.65
2017-11-15T11:53:51.501Z,102196.26
2017-11-15T11:56:19.140Z,102200.72
2017-11-15T11:58:47.625Z,102192.50
2017-11-15T12:01:15.224Z,102200.05
2017-11-15T12:03:42.887Z,102191.53
2017-11-15T12:06:10.557Z,102186.94
2017-11-15T12:08:38.191Z,102192.25
2017-11-15T12:11:05.906Z,102191.95
2017-11-15T12:13:33.620Z,102191.70
2017-11-15T12:16:01.292Z,102190.44
2017-11-15T12:18:29.026Z,102195.03
2017-11-15T12:20:56.711Z,102192.37
2017-11-15T12:23:24.409Z,102191.41
2017-11-15T12:25:52.067Z,102189.30
2017-11-15T12:28:19.768Z,102190.70
2017-11-15T12:30:47.454Z,102187.36
2017-11-15T12:33:15.165Z,102191.27
2017-11-15T12:35:42.825Z,102195.87
2017-11-15T12:38:10.548Z,102193.22
2017-11-15T12:40:38.219Z,102197.10
2017-11-15T12:43:05.944Z,102202.67
2017-11-15T12:45:33.622Z,102194.90
2017-11-15T12:48:01.280Z,102197.69
2017-11-15T12:50:28.937Z,102199.20
2017-11-15T12:52:56.580Z,102201.14
2017-11-15T12:55:24.174Z,102200.05
2017-11-15T12:57:51.831Z,102197.69
2017-11-15T13:00:19.518Z,102199.88
2017-11-15T13:02:47.212Z,102203.80
2017-11-15T13:05:14.861Z,102202.53
2017-11-15T13:07:42.492Z,102205.73
2017-11-15T13:10:10.131Z,102206.84
2017-11-15T13:12:37.857Z,102206.42
2017-11-15T13:15:05.506Z,102207.81
2017-11-15T13:17:33.101Z,102212.53
2017-11-15T13:20:00.766Z,102213.25
2017-11-15T13:22:28.426Z,102213.12
2017-11-15T13:24:56.154Z,102218.94
2017-11-15T13:27:24.819Z,102215.48
2017-11-15T13:29:52.532Z,102223.53
2017-11-15T13:32:20.318Z,102214.51
2017-11-15T13:34:48.026Z,102217.71
2017-11-15T13:37:15.709Z,102219.36
2017-11-15T13:39:43.416Z,102220.63
2017-11-15T13:42:11.067Z,102223.70
2017-11-15T13:44:38.777Z,102219.94
2017-11-15T13:47:06.387Z,102211.02
2017-11-15T13:49:34.135Z,102225.90
2017-11-15T13:52:01.795Z,102224.80
2017-11-15T13:54:29.479Z,102228.12
2017-11-15T13:56:57.168Z,102236.64
2017-11-15T13:59:24.873Z,102235.51
2017-11-15T14:01:52.545Z,102237.45
2017-11-15T14:04:20.266Z,102233.02
2017-11-15T14:06:47.920Z,102237.03
2017-11-15T14:09:15.625Z,102236.77
2017-11-15T14:11:43.273Z,102235.38
2017-11-15T14:14:10.983Z,102242.33
2017-11-15T14:16:38.666Z,102237.73
2017-11-15T14:19:06.424Z,102243.84
2017-11-15T14:21:34.185Z,102246.63
2017-11-15T14:24:01.939Z,102243.42
2017-11-15T14:26:29.687Z,102241.22
2017-11-15T14:28:57.410Z,102247.59
2017-11-15T14:31:25.158Z,102243.72
2017-11-15T14:33:52.873Z,102246.37
2017-11-15T14:36:20.678Z,102244.27
2017-11-15T14:38:48.430Z,102246.79
2017-11-15T14:41:16.168Z,102248.86
2017-11-15T14:43:43.944Z,102250.37
2017-11-15T14:46:11.710Z,102255.68
2017-11-15T14:48:39.462Z,102262.22
2017-11-15T14:51:07.289Z,102256.64
2017-11-15T14:53:35.082Z,102266.39
2017-11-15T14:56:02.848Z,102265.96
2017-11-15T14:58:30.582Z,102267.35
2017-11-15T15:00:58.323Z,102270.42
2017-11-15T15:03:25.980Z,102271.81
2017-11-15T15:05:53.750Z,102274.17
2017-11-15T15:08:21.474Z,102274.59
2017-11-15T15:10:49.274Z,102276.23
2017-11-15T15:13:17.057Z,102273.03
2017-11-15T15:15:44.770Z,102276.94
2017-11-15T15:18:12.431Z,102275.25
2017-11-15T15:20:40.156Z,102273.31
2017-11-15T15:23:07.852Z,102281.23
2017-11-15T15:25:35.516Z,102268.86
2017-11-15T15:28:03.234Z,102274.00
2017-11-15T15:30:30.961Z,102273.70
2017-11-15T15:32:59.629Z,102281.35
2017-11-15T15:35:27.336Z,102284.25
2017-11-15T15:37:55.053Z,102276.73
2017-11-15T15:40:22.775Z,102288.52
2017-11-15T15:42:50.509Z,102276.29
2017-11-15T15:45:18.243Z,102281.73
2017-11-15T15:47:46.054Z,102283.79
2017-11-15T15:50:13.791Z,102281.85
2017-11-15T15:52:41.529Z,102293.11
2017-11-15T15:55:09.255Z,102293.53
2017-11-15T15:57:36.994Z,102293.53
2017-11-15T16:00:04.788Z,102292.69
2017-11-15T16:02:32.527Z,102294.91
2017-11-15T16:05:00.240Z,102290.48
2017-11-15T16:07:27.964Z,102293.26
2017-11-15T16:09:55.633Z,102298.23
2017-11-15T16:12:23.332Z,102298.53
2017-11-15T16:14:51.039Z,102292.55
2017-11-15T16:17:18.751Z,102292.68
2017-11-15T16:19:46.399Z,102292.27
2017-11-15T16:22:14.063Z,102293.39
2017-11-15T16:24:41.727Z,102294.64
2017-11-15T16:27:09.396Z,102289.34
2017-11-15T16:29:37.111Z,102292.83
2017-11-15T16:32:04.772Z,102292.12
2017-11-15T16:34:32.468Z,102295.20
2017-11-15T16:37:00.142Z,102300.89
2017-11-15T16:39:27.833Z,102300.05
2017-11-15T16:41:55.552Z,102299.92
2017-11-15T16:44:23.184Z,102298.55
2017-11-15T16:46:50.786Z,102301.62
2017-11-15T16:49:18.424Z,102304.78
2017-11-15T16:51:46.074Z,102301.03
2017-11-15T16:54:13.711Z,102301.04
2017-11-15T16:56:41.325Z,102299.52
2017-11-15T16:59:08.975Z,102299.80
2017-11-15T17:01:36.600Z,102294.23
2017-11-15T17:04:04.199Z,102295.32
2017-11-15T17:06:31.839Z,102296.70
2017-11-15T17:08:59.479Z,102303.52
2017-11-15T17:11:27.088Z,102301.69
2017-11-15T17:13:54.687Z,102303.91
2017-11-15T17:16:22.312Z,102299.31
2017-11-15T17:18:49.908Z,102302.77
2017-11-15T17:21:17.531Z,102312.09
2017-11-15T17:23:45.160Z,102315.42
2017-11-15T17:26:12.816Z,102323.05
2017-11-15T17:28:40.430Z,102318.75
2017-11-15T17:31:08.203Z,102322.64
2017-11-15T17:33:35.800Z,102320.45
2017-11-15T17:36:03.426Z,102324.04
2017-11-15T17:38:31.084Z,102330.19
2017-11-15T17:40:58.715Z,102333.36
2017-11-15T17:43:26.331Z,102337.54
2017-11-15T17:45:54.009Z,102334.94
2017-11-15T17:48:21.633Z,102335.74
2017-11-15T17:50:49.304Z,102332.97
2017-11-15T17:53:16.919Z,102334.35
2017-11-15T17:55:44.546Z,102332.42
2017-11-15T17:58:12.157Z,102335.75
2017-11-15T18:00:39.788Z,102337.14
2017-11-15T18:03:07.380Z,102335.91
2017-11-15T18:05:35.020Z,102340.09
2017-11-15T18:08:02.627Z,102336.04
2017-11-15T18:10:30.228Z,102342.16
2017-11-15T18:12:57.861Z,102338.70
2017-11-15T18:15:25.480Z,102336.31
2017-11-15T18:17:53.120Z,102342.27
2017-11-15T18:20:20.718Z,102344.87
2017-11-15T18:22:48.361Z,102338.20
2017-11-15T18:25:15.984Z,102339.59
2017-11-15T18:27:43.612Z,102344.73
2017-11-15T18:30:11.227Z,102342.09
2017-11-15T18:32:38.875Z,102350.18
2017-11-15T18:35:06.489Z,102339.06
2017-11-15T18:37:34.127Z,102338.91
2017-11-15T18:40:01.755Z,102341.00
2017-11-15T18:42:29.417Z,102345.70
2017-11-15T18:44:57.026Z,102350.28
2017-11-15T18:47:24.669Z,102354.02
2017-11-15T18:49:52.296Z,102354.20
2017-11-15T18:52:19.935Z,102348.49
2017-11-15T18:54:47.554Z,102355.87
2017-11-15T18:57:15.200Z,102350.33
2017-11-15T18:59:42.814Z,102344.37
2017-11-15T19:02:10.420Z,102349.64
2017-11-15T19:04:38.063Z,102346.86
2017-11-15T19:07:05.674Z,102356.89
2017-11-15T19:09:33.309Z,102347.17
2017-11-15T19:12:00.903Z,102353.58
2017-11-15T19:14:28.540Z,102362.04
2017-11-15T19:16:56.140Z,102356.47
2017-11-15T19:19:23.786Z,102368.43
2017-11-15T19:21:51.427Z,102362.32
2017-11-15T19:24:19.131Z,102361.19
2017-11-15T19:26:46.818Z,102364.93
2017-11-15T19:29:14.520Z,102369.95
2017-11-15T19:31:42.212Z,102366.75
2017-11-15T19:34:09.953Z,102370.65
2017-11-15T19:36:37.601Z,102376.34
2017-11-15T19:39:05.265Z,102374.95
2017-11-15T19:41:33.053Z,102374.66
2017-11-15T19:44:00.717Z,102370.91
2017-11-15T19:46:28.425Z,102373.85
2017-11-15T19:48:56.121Z,102374.54
2017-11-15T19:51:23.828Z,102372.47
2017-11-15T19:53:51.525Z,102375.36
2017-11-15T19:56:19.239Z,102387.70
2017-11-15T19:58:46.911Z,102380.57
2017-11-15T20:01:14.618Z,102386.33
2017-11-15T20:03:42.396Z,102380.84
2017-11-15T20:06:10.231Z,102391.30
2017-11-15T20:08:38.018Z,102395.39
2017-11-15T20:11:05.837Z,102398.38
2017-11-15T20:13:34.401Z,102402.50
2017-11-15T20:16:02.350Z,102403.16
2017-11-15T20:18:30.172Z,102407.75
2017-11-15T20:20:58.020Z,102402.50
2017-11-15T20:23:25.612Z,102400.41
2017-11-15T20:25:53.308Z,102397.63
2017-11-15T20:28:21.088Z,102397.36
2017-11-15T20:30:48.913Z,102390.41
2017-11-15T20:33:16.715Z,102388.61
2017-11-15T20:35:44.376Z,102386.26
2017-11-15T20:38:12.177Z,102389.20
2017-11-15T20:40:39.986Z,102384.64
2017-11-15T20:43:07.687Z,102389.35
2017-11-15T20:45:35.352Z,102383.00
2017-11-15T20:48:03.225Z,102387.73
2017-11-15T20:50:31.008Z,102388.69
2017-11-15T20:52:58.836Z,102391.52
2017-11-15T20:55:27.511Z,102389.66
2017-11-15T20:57:55.265Z,102393.50
2017-11-15T21:00:23.067Z,102398.51
2017-11-15T21:02:53.008Z,102395.14
2017-11-15T21:05:21.617Z,102393.98
2017-11-15T21:07:50.222Z,102389.86
2017-11-15T21:10:18.214Z,102389.77
2017-11-15T21:12:46.088Z,102390.58
2017-11-15T21:15:13.987Z,102393.05
2017-11-15T21:17:41.843Z,102395.25
2017-11-15T21:20:09.756Z,102384.86
2017-11-15T21:22:37.659Z,102383.31
2017-11-15T21:25:05.509Z,102375.51
2017-11-15T21:27:33.368Z,102377.83
2017-11-15T21:30:01.168Z,102380.90
2017-11-15T21:32:28.961Z,102383.52
2017-11-15T21:34:56.631Z,102385.11
2017-11-15T21:37:24.333Z,102384.95
2017-11-15T21:39:52.012Z,102388.27
2017-11-15T21:42:19.612Z,102391.73
2017-11-15T21:44:47.309Z,102393.39
2017-11-15T21:47:14.975Z,102393.88
2017-11-15T21:49:42.735Z,102389.67
2017-11-15T21:52:10.426Z,102387.54
2017-11-15T21:54:38.137Z,102390.80
2017-11-15T21:57:05.805Z,102388.30
2017-11-15T21:59:33.509Z,102385.73
2017-11-15T22:02:01.192Z,102386.09
2017-11-15T22:04:28.921Z,102386.25
2017-11-15T22:06:56.575Z,102383.93
2017-11-15T22:09:24.286Z,102388.12
2017-11-15T22:11:51.940Z,102387.81
2017-11-15T22:14:19.644Z,102381.73
2017-11-15T22:16:47.329Z,102383.39
2017-11-15T22:19:15.038Z,102384.35
2017-11-15T22:21:42.709Z,102390.59
2017-11-15T22:24:10.372Z,102388.66
2017-11-15T22:26:38.058Z,102399.48
2017-11-15T22:29:05.661Z,102404.09
2017-11-15T22:31:33.384Z,102388.33
2017-11-15T22:34:00.984Z,102389.03
2017-11-15T22:36:28.695Z,102386.83
2017-11-15T22:38:56.811Z,102384.08
2017-11-15T22:41:24.512Z,102382.61
2017-11-15T22:43:52.108Z,102391.83
2017-11-15T22:46:19.741Z,102385.77
2017-11-15T22:48:47.367Z,102381.88
2017-11-15T22:51:15.042Z,102389.53
2017-11-15T22:53:42.738Z,102390.38
2017-11-15T22:56:10.417Z,102389.59
2017-11-15T22:58:38.125Z,102389.20
2017-11-15T23:01:05.796Z,102383.52
2017-11-15T23:03:33.489Z,102382.86
2017-11-15T23:06:01.190Z,102374.11
2017-11-15T23:08:28.912Z,102371.06
2017-11-15T23:10:56.573Z,102369.68
2017-11-15T23:13:24.224Z,102372.63
2017-11-15T23:15:51.877Z,102374.86
2017-11-15T23:18:19.557Z,102372.11
2017-11-15T23:20:47.264Z,102367.43
2017-11-15T23:23:14.929Z,102370.66
2017-11-15T23:25:42.635Z,102367.20
2017-11-15T23:28:10.287Z,102368.07
2017-11-15T23:30:37.984Z,102365.89
2017-11-15T23:33:05.644Z,102361.09
2017-11-15T23:35:33.363Z,102372.63
2017-11-15T23:38:01.024Z,102369.44
2017-11-15T23:40:28.659Z,102372.45
2017-11-15T23:42:56.324Z,102367.18
2017-11-15T23:45:23.985Z,102368.14
2017-11-15T23:47:51.689Z,102366.76
2017-11-15T23:50:19.404Z,102364.83
2017-11-15T23:52:47.164Z,102372.19
2017-11-15T23:55:14.839Z,102367.30
2017-11-15T23:57:42.544Z,102363.98
